sensor_id;sensor_type;location;lat;lon;timestamp;temperature;humidity
10472;DHT22;5283;48.876;8.962;2024-03-25T00:00:17;5.40;99.90
10472;DHT22;5283;48.876;8.962;2024-03-25T00:02:43;5.40;99.90
10472;DHT22;5283;48.876;8.962;2024-03-25T00:05:09;5.40;99.90
10472;DHT22;5283;48.876;8.962;2024-03-25T00:07:39;5.40;99.90
10472;DHT22;5283;48.876;8.962;2024-03-25T00:10:06;5.40;99.90
10472;DHT22;5283;48.876;8.962;2024-03-25T00:12:36;5.30;99.90
10472;DHT22;5283;48.876;8.962;2024-03-25T00:15:03;5.30;99.90
10472;DHT22;5283;48.876;8.962;2024-03-25T00:17:28;5.30;99.90
10472;DHT22;5283;48.876;8.962;2024-03-25T00:19:54;5.30;99.90
10472;DHT22;5283;48.876;8.962;2024-03-25T00:22:21;5.30;99.90
10472;DHT22;5283;48.876;8.962;2024-03-25T00:24:47;5.30;99.90
10472;DHT22;5283;48.876;8.962;2024-03-25T00:27:14;5.40;99.90
10472;DHT22;5283;48.876;8.962;2024-03-25T00:29:40;5.30;99.90
10472;DHT22;5283;48.876;8.962;2024-03-25T00:32:06;5.30;99.90
10472;DHT22;5283;48.876;8.962;2024-03-25T00:34:32;5.20;99.90
10472;DHT22;5283;48.876;8.962;2024-03-25T00:37:02;5.30;99.90
10472;DHT22;5283;48.876;8.962;2024-03-25T00:39:28;5.20;99.90
10472;DHT22;5283;48.876;8.962;2024-03-25T00:41:56;5.20;99.90
10472;DHT22;5283;48.876;8.962;2024-03-25T00:44:22;5.20;99.90
10472;DHT22;5283;48.876;8.962;2024-03-25T00:46:47;5.10;99.90
10472;DHT22;5283;48.876;8.962;2024-03-25T00:49:13;5.20;99.90
10472;DHT22;5283;48.876;8.962;2024-03-25T00:51:39;5.30;99.90
10472;DHT22;5283;48.876;8.962;2024-03-25T00:54:05;5.20;99.90
10472;DHT22;5283;48.876;8.962;2024-03-25T00:56:31;5.20;99.90
10472;DHT22;5283;48.876;8.962;2024-03-25T00:58:57;5.30;99.90
10472;DHT22;5283;48.876;8.962;2024-03-25T01:01:28;5.40;99.90
10472;DHT22;5283;48.876;8.962;2024-03-25T01:03:54;5.40;99.90
10472;DHT22;5283;48.876;8.962;2024-03-25T01:06:20;5.30;99.90
10472;DHT22;5283;48.876;8.962;2024-03-25T01:08:46;5.40;99.90
10472;DHT22;5283;48.876;8.962;2024-03-25T01:11:11;5.40;99.90
10472;DHT22;5283;48.876;8.962;2024-03-25T01:13:37;5.30;99.90
10472;DHT22;5283;48.876;8.962;2024-03-25T01:16:03;5.30;99.90
10472;DHT22;5283;48.876;8.962;2024-03-25T01:18:29;5.30;99.90
10472;DHT22;5283;48.876;8.962;2024-03-25T01:20:55;5.40;99.90
10472;DHT22;5283;48.876;8.962;2024-03-25T01:23:20;5.40;99.90
10472;DHT22;5283;48.876;8.962;2024-03-25T01:25:46;5.40;99.90
10472;DHT22;5283;48.876;8.962;2024-03-25T01:28:12;5.40;99.90
10472;DHT22;5283;48.876;8.962;2024-03-25T01:30:38;5.40;99.90
10472;DHT22;5283;48.876;8.962;2024-03-25T01:33:06;5.40;99.90
10472;DHT22;5283;48.876;8.962;2024-03-25T01:35:32;5.40;99.90
10472;DHT22;5283;48.876;8.962;2024-03-25T01:37:58;5.30;99.90
10472;DHT22;5283;48.876;8.962;2024-03-25T01:40:24;5.30;99.90
10472;DHT22;5283;48.876;8.962;2024-03-25T01:42:57;5.40;99.90
10472;DHT22;5283;48.876;8.962;2024-03-25T01:45:24;5.40;99.90
10472;DHT22;5283;48.876;8.962;2024-03-25T01:47:51;5.40;99.90
10472;DHT22;5283;48.876;8.962;2024-03-25T01:50:18;5.40;99.90
10472;DHT22;5283;48.876;8.962;2024-03-25T01:52:44;5.40;99.90
10472;DHT22;5283;48.876;8.962;2024-03-25T01:55:15;5.40;99.90
10472;DHT22;5283;48.876;8.962;2024-03-25T01:57:45;5.30;99.90
10472;DHT22;5283;48.876;8.962;2024-03-25T02:00:12;5.30;99.90
10472;DHT22;5283;48.876;8.962;2024-03-25T02:02:40;5.30;99.90
10472;DHT22;5283;48.876;8.962;2024-03-25T02:05:07;5.30;99.90
10472;DHT22;5283;48.876;8.962;2024-03-25T02:07:35;5.20;99.90
10472;DHT22;5283;48.876;8.962;2024-03-25T02:10:07;5.30;99.90
10472;DHT22;5283;48.876;8.962;2024-03-25T02:12:39;5.30;99.90
10472;DHT22;5283;48.876;8.962;2024-03-25T02:15:06;5.30;99.90
10472;DHT22;5283;48.876;8.962;2024-03-25T02:17:32;5.30;99.90
10472;DHT22;5283;48.876;8.962;2024-03-25T02:19:58;5.30;99.90
10472;DHT22;5283;48.876;8.962;2024-03-25T02:22:23;5.20;99.90
10472;DHT22;5283;48.876;8.962;2024-03-25T02:24:52;5.20;99.90
10472;DHT22;5283;48.876;8.962;2024-03-25T02:27:18;5.30;99.90
10472;DHT22;5283;48.876;8.962;2024-03-25T02:29:44;5.20;99.90
10472;DHT22;5283;48.876;8.962;2024-03-25T02:32:10;5.30;99.90
10472;DHT22;5283;48.876;8.962;2024-03-25T02:34:45;5.20;99.90
10472;DHT22;5283;48.876;8.962;2024-03-25T02:37:11;5.30;99.90
10472;DHT22;5283;48.876;8.962;2024-03-25T02:39:37;5.20;99.90
10472;DHT22;5283;48.876;8.962;2024-03-25T02:42:04;5.30;99.90
10472;DHT22;5283;48.876;8.962;2024-03-25T02:44:30;5.30;99.90
10472;DHT22;5283;48.876;8.962;2024-03-25T02:46:57;5.20;99.90
10472;DHT22;5283;48.876;8.962;2024-03-25T02:49:23;5.20;99.90
10472;DHT22;5283;48.876;8.962;2024-03-25T02:51:49;5.20;99.90
10472;DHT22;5283;48.876;8.962;2024-03-25T02:54:14;5.20;99.90
10472;DHT22;5283;48.876;8.962;2024-03-25T02:56:40;5.20;99.90
10472;DHT22;5283;48.876;8.962;2024-03-25T02:59:06;5.10;99.90
10472;DHT22;5283;48.876;8.962;2024-03-25T03:01:32;5.10;99.90
10472;DHT22;5283;48.876;8.962;2024-03-25T03:03:58;5.10;99.90
10472;DHT22;5283;48.876;8.962;2024-03-25T03:06:24;5.10;99.90
10472;DHT22;5283;48.876;8.962;2024-03-25T03:08:49;5.00;99.90
10472;DHT22;5283;48.876;8.962;2024-03-25T03:11:15;5.00;99.90
10472;DHT22;5283;48.876;8.962;2024-03-25T03:13:41;5.00;99.90
10472;DHT22;5283;48.876;8.962;2024-03-25T03:16:07;5.00;99.90
10472;DHT22;5283;48.876;8.962;2024-03-25T03:18:33;5.00;99.90
10472;DHT22;5283;48.876;8.962;2024-03-25T03:20:58;4.90;99.90
10472;DHT22;5283;48.876;8.962;2024-03-25T03:23:24;4.90;99.90
10472;DHT22;5283;48.876;8.962;2024-03-25T03:25:50;4.90;99.90
10472;DHT22;5283;48.876;8.962;2024-03-25T03:28:17;4.90;99.90
10472;DHT22;5283;48.876;8.962;2024-03-25T03:30:43;4.90;99.90
10472;DHT22;5283;48.876;8.962;2024-03-25T03:33:09;4.90;99.90
10472;DHT22;5283;48.876;8.962;2024-03-25T03:35:35;4.80;99.90
10472;DHT22;5283;48.876;8.962;2024-03-25T03:38:01;4.70;99.90
10472;DHT22;5283;48.876;8.962;2024-03-25T03:40:29;4.60;99.90
10472;DHT22;5283;48.876;8.962;2024-03-25T03:42:55;4.60;99.90
10472;DHT22;5283;48.876;8.962;2024-03-25T03:45:23;4.50;99.90
10472;DHT22;5283;48.876;8.962;2024-03-25T03:47:49;4.50;99.90
10472;DHT22;5283;48.876;8.962;2024-03-25T03:50:15;4.50;99.90
10472;DHT22;5283;48.876;8.962;2024-03-25T03:52:41;4.70;99.90
10472;DHT22;5283;48.876;8.962;2024-03-25T03:55:07;4.70;99.90
10472;DHT22;5283;48.876;8.962;2024-03-25T03:57:33;4.70;99.90
10472;DHT22;5283;48.876;8.962;2024-03-25T03:59:58;4.60;99.90
10472;DHT22;5283;48.876;8.962;2024-03-25T04:02:28;4.60;99.90
10472;DHT22;5283;48.876;8.962;2024-03-25T04:04:56;4.50;99.90
10472;DHT22;5283;48.876;8.962;2024-03-25T04:07:22;4.60;99.90
10472;DHT22;5283;48.876;8.962;2024-03-25T04:09:58;4.60;99.90
10472;DHT22;5283;48.876;8.962;2024-03-25T04:12:25;4.50;99.90
10472;DHT22;5283;48.876;8.962;2024-03-25T04:14:50;4.50;99.90
10472;DHT22;5283;48.876;8.962;2024-03-25T04:17:21;4.50;99.90
10472;DHT22;5283;48.876;8.962;2024-03-25T04:19:48;4.50;99.90
10472;DHT22;5283;48.876;8.962;2024-03-25T04:22:14;4.40;99.90
10472;DHT22;5283;48.876;8.962;2024-03-25T04:24:40;4.40;99.90
10472;DHT22;5283;48.876;8.962;2024-03-25T04:27:06;4.40;99.90
10472;DHT22;5283;48.876;8.962;2024-03-25T04:29:31;4.30;99.90
10472;DHT22;5283;48.876;8.962;2024-03-25T04:31:57;4.20;99.90
10472;DHT22;5283;48.876;8.962;2024-03-25T04:34:23;4.20;99.90
10472;DHT22;5283;48.876;8.962;2024-03-25T04:36:49;4.30;99.90
10472;DHT22;5283;48.876;8.962;2024-03-25T04:39:15;4.10;99.90
10472;DHT22;5283;48.876;8.962;2024-03-25T04:41:40;4.10;99.90
10472;DHT22;5283;48.876;8.962;2024-03-25T04:44:06;3.90;99.90
10472;DHT22;5283;48.876;8.962;2024-03-25T04:46:32;3.80;99.90
10472;DHT22;5283;48.876;8.962;2024-03-25T04:48:58;3.70;99.90
10472;DHT22;5283;48.876;8.962;2024-03-25T04:51:23;3.60;99.90
10472;DHT22;5283;48.876;8.962;2024-03-25T04:53:49;3.40;99.90
10472;DHT22;5283;48.876;8.962;2024-03-25T04:56:15;3.20;99.90
10472;DHT22;5283;48.876;8.962;2024-03-25T04:58:41;3.20;99.90
10472;DHT22;5283;48.876;8.962;2024-03-25T05:01:07;3.00;99.90
10472;DHT22;5283;48.876;8.962;2024-03-25T05:03:32;2.80;99.90
10472;DHT22;5283;48.876;8.962;2024-03-25T05:05:58;2.80;99.90
10472;DHT22;5283;48.876;8.962;2024-03-25T05:08:24;2.70;99.90
10472;DHT22;5283;48.876;8.962;2024-03-25T05:10:50;2.70;99.90
10472;DHT22;5283;48.876;8.962;2024-03-25T05:13:16;2.60;99.90
10472;DHT22;5283;48.876;8.962;2024-03-25T05:15:49;2.50;99.90
10472;DHT22;5283;48.876;8.962;2024-03-25T05:18:16;2.40;99.90
10472;DHT22;5283;48.876;8.962;2024-03-25T05:20:42;2.30;99.90
10472;DHT22;5283;48.876;8.962;2024-03-25T05:23:08;2.20;99.90
10472;DHT22;5283;48.876;8.962;2024-03-25T05:25:35;2.20;99.90
10472;DHT22;5283;48.876;8.962;2024-03-25T05:28:00;2.20;99.90
10472;DHT22;5283;48.876;8.962;2024-03-25T05:30:26;2.20;99.90
10472;DHT22;5283;48.876;8.962;2024-03-25T05:32:52;2.30;99.90
10472;DHT22;5283;48.876;8.962;2024-03-25T05:35:18;2.40;99.90
10472;DHT22;5283;48.876;8.962;2024-03-25T05:37:45;2.40;99.90
10472;DHT22;5283;48.876;8.962;2024-03-25T05:40:11;2.40;99.90
10472;DHT22;5283;48.876;8.962;2024-03-25T05:42:37;2.40;99.90
10472;DHT22;5283;48.876;8.962;2024-03-25T05:45:03;2.40;99.90
10472;DHT22;5283;48.876;8.962;2024-03-25T05:47:29;2.40;99.90
10472;DHT22;5283;48.876;8.962;2024-03-25T05:49:55;2.40;99.90
10472;DHT22;5283;48.876;8.962;2024-03-25T05:52:21;2.40;99.90
10472;DHT22;5283;48.876;8.962;2024-03-25T05:54:47;2.50;99.90
10472;DHT22;5283;48.876;8.962;2024-03-25T05:57:12;2.50;99.90
10472;DHT22;5283;48.876;8.962;2024-03-25T05:59:38;2.50;99.90
10472;DHT22;5283;48.876;8.962;2024-03-25T06:02:04;2.50;99.90
10472;DHT22;5283;48.876;8.962;2024-03-25T06:04:30;2.50;99.90
10472;DHT22;5283;48.876;8.962;2024-03-25T06:06:55;2.50;99.90
10472;DHT22;5283;48.876;8.962;2024-03-25T06:09:22;2.70;99.90
10472;DHT22;5283;48.876;8.962;2024-03-25T06:11:47;3.20;99.90
10472;DHT22;5283;48.876;8.962;2024-03-25T06:14:13;3.70;99.90
10472;DHT22;5283;48.876;8.962;2024-03-25T06:16:39;4.10;99.90
10472;DHT22;5283;48.876;8.962;2024-03-25T06:19:05;4.40;99.90
10472;DHT22;5283;48.876;8.962;2024-03-25T06:21:30;4.60;99.90
10472;DHT22;5283;48.876;8.962;2024-03-25T06:23:56;4.80;99.90
10472;DHT22;5283;48.876;8.962;2024-03-25T06:26:22;5.00;99.90
10472;DHT22;5283;48.876;8.962;2024-03-25T06:28:48;5.10;99.90
10472;DHT22;5283;48.876;8.962;2024-03-25T06:31:13;5.40;99.90
10472;DHT22;5283;48.876;8.962;2024-03-25T06:33:58;5.50;99.90
10472;DHT22;5283;48.876;8.962;2024-03-25T06:36:43;5.70;99.90
10472;DHT22;5283;48.876;8.962;2024-03-25T06:39:09;5.90;99.90
10472;DHT22;5283;48.876;8.962;2024-03-25T06:41:35;6.00;99.90
10472;DHT22;5283;48.876;8.962;2024-03-25T06:44:01;6.20;99.90
10472;DHT22;5283;48.876;8.962;2024-03-25T06:46:27;6.50;99.90
10472;DHT22;5283;48.876;8.962;2024-03-25T06:48:53;6.40;99.90
10472;DHT22;5283;48.876;8.962;2024-03-25T06:51:18;6.50;99.90
10472;DHT22;5283;48.876;8.962;2024-03-25T06:53:44;6.60;99.90
10472;DHT22;5283;48.876;8.962;2024-03-25T06:56:10;6.50;99.90
10472;DHT22;5283;48.876;8.962;2024-03-25T06:58:36;6.60;99.90
10472;DHT22;5283;48.876;8.962;2024-03-25T07:01:07;6.50;99.90
10472;DHT22;5283;48.876;8.962;2024-03-25T07:03:34;6.50;99.90
10472;DHT22;5283;48.876;8.962;2024-03-25T07:06:01;6.40;99.90
10472;DHT22;5283;48.876;8.962;2024-03-25T07:08:28;6.40;99.90
10472;DHT22;5283;48.876;8.962;2024-03-25T07:10:54;6.30;99.90
10472;DHT22;5283;48.876;8.962;2024-03-25T07:13:20;6.30;99.90
10472;DHT22;5283;48.876;8.962;2024-03-25T07:15:46;6.40;99.90
10472;DHT22;5283;48.876;8.962;2024-03-25T07:18:12;6.50;99.90
10472;DHT22;5283;48.876;8.962;2024-03-25T07:20:41;6.50;99.90
10472;DHT22;5283;48.876;8.962;2024-03-25T07:23:07;6.50;99.90
10472;DHT22;5283;48.876;8.962;2024-03-25T07:25:33;6.50;99.90
10472;DHT22;5283;48.876;8.962;2024-03-25T07:27:59;6.60;99.90
10472;DHT22;5283;48.876;8.962;2024-03-25T07:30:25;6.60;99.90
10472;DHT22;5283;48.876;8.962;2024-03-25T07:32:54;6.50;99.90
10472;DHT22;5283;48.876;8.962;2024-03-25T07:35:20;6.60;99.90
10472;DHT22;5283;48.876;8.962;2024-03-25T07:37:46;6.60;99.90
10472;DHT22;5283;48.876;8.962;2024-03-25T07:40:12;6.70;99.90
10472;DHT22;5283;48.876;8.962;2024-03-25T07:42:39;6.90;99.90
10472;DHT22;5283;48.876;8.962;2024-03-25T07:45:05;6.90;99.90
10472;DHT22;5283;48.876;8.962;2024-03-25T07:47:32;6.90;99.90
10472;DHT22;5283;48.876;8.962;2024-03-25T07:49:58;6.90;99.90
10472;DHT22;5283;48.876;8.962;2024-03-25T07:52:25;6.90;99.90
10472;DHT22;5283;48.876;8.962;2024-03-25T07:54:51;7.00;99.90
10472;DHT22;5283;48.876;8.962;2024-03-25T07:57:17;7.10;99.90
10472;DHT22;5283;48.876;8.962;2024-03-25T07:59:43;7.10;99.90
10472;DHT22;5283;48.876;8.962;2024-03-25T08:02:09;7.10;99.90
10472;DHT22;5283;48.876;8.962;2024-03-25T08:04:35;7.20;99.90
10472;DHT22;5283;48.876;8.962;2024-03-25T08:07:00;7.30;99.90
10472;DHT22;5283;48.876;8.962;2024-03-25T08:09:26;7.30;99.90
10472;DHT22;5283;48.876;8.962;2024-03-25T08:11:52;7.40;99.90
10472;DHT22;5283;48.876;8.962;2024-03-25T08:14:17;7.30;99.90
10472;DHT22;5283;48.876;8.962;2024-03-25T08:16:43;7.30;99.90
10472;DHT22;5283;48.876;8.962;2024-03-25T08:19:09;7.30;99.90
10472;DHT22;5283;48.876;8.962;2024-03-25T08:21:35;7.40;99.90
10472;DHT22;5283;48.876;8.962;2024-03-25T08:24:00;7.40;99.90
10472;DHT22;5283;48.876;8.962;2024-03-25T08:26:26;7.40;99.90
10472;DHT22;5283;48.876;8.962;2024-03-25T08:28:52;7.40;99.90
10472;DHT22;5283;48.876;8.962;2024-03-25T08:31:17;7.40;99.90
10472;DHT22;5283;48.876;8.962;2024-03-25T08:33:43;7.40;99.90
10472;DHT22;5283;48.876;8.962;2024-03-25T08:36:09;7.40;99.90
10472;DHT22;5283;48.876;8.962;2024-03-25T08:38:35;7.50;99.90
10472;DHT22;5283;48.876;8.962;2024-03-25T08:41:01;7.50;99.90
10472;DHT22;5283;48.876;8.962;2024-03-25T08:43:27;7.50;99.90
10472;DHT22;5283;48.876;8.962;2024-03-25T08:45:52;7.60;99.90
10472;DHT22;5283;48.876;8.962;2024-03-25T08:48:18;7.70;99.90
10472;DHT22;5283;48.876;8.962;2024-03-25T08:50:44;7.60;99.90
10472;DHT22;5283;48.876;8.962;2024-03-25T08:53:09;7.70;99.90
10472;DHT22;5283;48.876;8.962;2024-03-25T08:55:35;7.80;99.90
10472;DHT22;5283;48.876;8.962;2024-03-25T08:58:01;7.90;99.90
10472;DHT22;5283;48.876;8.962;2024-03-25T09:00:27;8.00;99.90
10472;DHT22;5283;48.876;8.962;2024-03-25T09:02:54;8.10;99.90
10472;DHT22;5283;48.876;8.962;2024-03-25T09:05:20;8.10;99.90
10472;DHT22;5283;48.876;8.962;2024-03-25T09:07:48;8.20;99.90
10472;DHT22;5283;48.876;8.962;2024-03-25T09:10:17;8.30;99.90
10472;DHT22;5283;48.876;8.962;2024-03-25T09:13:01;8.20;99.90
10472;DHT22;5283;48.876;8.962;2024-03-25T09:15:29;8.20;99.90
10472;DHT22;5283;48.876;8.962;2024-03-25T09:17:55;8.30;99.90
10472;DHT22;5283;48.876;8.962;2024-03-25T09:20:21;8.40;99.90
10472;DHT22;5283;48.876;8.962;2024-03-25T09:22:47;8.60;99.90
10472;DHT22;5283;48.876;8.962;2024-03-25T09:25:16;8.50;99.90
10472;DHT22;5283;48.876;8.962;2024-03-25T09:27:46;8.60;99.90
10472;DHT22;5283;48.876;8.962;2024-03-25T09:30:12;8.40;99.90
10472;DHT22;5283;48.876;8.962;2024-03-25T09:32:40;8.40;99.90
10472;DHT22;5283;48.876;8.962;2024-03-25T09:35:07;8.40;99.90
10472;DHT22;5283;48.876;8.962;2024-03-25T09:37:33;8.50;99.90
10472;DHT22;5283;48.876;8.962;2024-03-25T09:39:59;8.40;99.90
10472;DHT22;5283;48.876;8.962;2024-03-25T09:42:34;8.40;99.90
10472;DHT22;5283;48.876;8.962;2024-03-25T09:45:01;8.50;99.90
10472;DHT22;5283;48.876;8.962;2024-03-25T09:47:28;8.70;99.90
10472;DHT22;5283;48.876;8.962;2024-03-25T09:49:54;8.80;99.90
10472;DHT22;5283;48.876;8.962;2024-03-25T09:52:20;8.90;99.90
10472;DHT22;5283;48.876;8.962;2024-03-25T09:54:46;9.00;99.90
10472;DHT22;5283;48.876;8.962;2024-03-25T09:57:12;9.00;99.90
10472;DHT22;5283;48.876;8.962;2024-03-25T09:59:39;8.80;99.90
10472;DHT22;5283;48.876;8.962;2024-03-25T10:02:05;9.00;99.90
10472;DHT22;5283;48.876;8.962;2024-03-25T10:04:32;9.20;99.90
10472;DHT22;5283;48.876;8.962;2024-03-25T10:06:58;9.30;99.90
10472;DHT22;5283;48.876;8.962;2024-03-25T10:09:24;9.30;99.90
10472;DHT22;5283;48.876;8.962;2024-03-25T10:11:51;9.40;99.90
10472;DHT22;5283;48.876;8.962;2024-03-25T10:14:17;9.50;99.90
10472;DHT22;5283;48.876;8.962;2024-03-25T10:16:43;9.60;99.90
10472;DHT22;5283;48.876;8.962;2024-03-25T10:19:09;9.60;99.90
10472;DHT22;5283;48.876;8.962;2024-03-25T10:21:35;9.60;99.90
10472;DHT22;5283;48.876;8.962;2024-03-25T10:24:04;9.40;99.90
10472;DHT22;5283;48.876;8.962;2024-03-25T10:26:31;9.40;99.90
10472;DHT22;5283;48.876;8.962;2024-03-25T10:28:59;9.20;99.90
10472;DHT22;5283;48.876;8.962;2024-03-25T10:31:25;9.10;99.90
10472;DHT22;5283;48.876;8.962;2024-03-25T10:33:51;9.10;99.90
10472;DHT22;5283;48.876;8.962;2024-03-25T10:36:17;8.90;99.90
10472;DHT22;5283;48.876;8.962;2024-03-25T10:38:44;8.70;99.90
10472;DHT22;5283;48.876;8.962;2024-03-25T10:41:13;8.70;99.90
10472;DHT22;5283;48.876;8.962;2024-03-25T10:43:46;8.60;99.90
10472;DHT22;5283;48.876;8.962;2024-03-25T10:46:20;8.30;99.90
10472;DHT22;5283;48.876;8.962;2024-03-25T10:51:58;8.20;99.90
10472;DHT22;5283;48.876;8.962;2024-03-25T10:54:28;8.20;99.90
10472;DHT22;5283;48.876;8.962;2024-03-25T10:56:56;8.30;99.90
10472;DHT22;5283;48.876;8.962;2024-03-25T10:59:24;8.40;99.90
10472;DHT22;5283;48.876;8.962;2024-03-25T11:01:51;8.60;99.90
10472;DHT22;5283;48.876;8.962;2024-03-25T11:04:18;8.70;99.90
10472;DHT22;5283;48.876;8.962;2024-03-25T11:06:44;8.80;99.90
10472;DHT22;5283;48.876;8.962;2024-03-25T11:09:10;8.90;99.90
10472;DHT22;5283;48.876;8.962;2024-03-25T11:11:36;9.10;99.90
10472;DHT22;5283;48.876;8.962;2024-03-25T11:14:15;9.20;99.90
10472;DHT22;5283;48.876;8.962;2024-03-25T11:16:41;9.40;99.90
10472;DHT22;5283;48.876;8.962;2024-03-25T11:19:11;9.60;99.90
10472;DHT22;5283;48.876;8.962;2024-03-25T11:21:36;9.60;99.90
10472;DHT22;5283;48.876;8.962;2024-03-25T11:24:08;9.60;99.90
10472;DHT22;5283;48.876;8.962;2024-03-25T11:26:34;9.50;99.90
10472;DHT22;5283;48.876;8.962;2024-03-25T11:29:03;9.70;99.90
10472;DHT22;5283;48.876;8.962;2024-03-25T11:31:29;9.80;99.90
10472;DHT22;5283;48.876;8.962;2024-03-25T11:33:56;9.80;99.90
10472;DHT22;5283;48.876;8.962;2024-03-25T11:36:23;9.80;99.90
10472;DHT22;5283;48.876;8.962;2024-03-25T11:39:05;9.90;99.90
10472;DHT22;5283;48.876;8.962;2024-03-25T11:41:42;10.00;99.90
10472;DHT22;5283;48.876;8.962;2024-03-25T11:44:09;10.20;99.90
10472;DHT22;5283;48.876;8.962;2024-03-25T11:46:37;10.30;99.90
10472;DHT22;5283;48.876;8.962;2024-03-25T11:49:07;10.30;99.90
10472;DHT22;5283;48.876;8.962;2024-03-25T11:51:34;10.20;99.90
10472;DHT22;5283;48.876;8.962;2024-03-25T11:54:02;10.20;99.90
10472;DHT22;5283;48.876;8.962;2024-03-25T11:56:30;10.30;99.90
10472;DHT22;5283;48.876;8.962;2024-03-25T11:58:57;10.40;99.90
10472;DHT22;5283;48.876;8.962;2024-03-25T12:01:23;10.40;99.90
10472;DHT22;5283;48.876;8.962;2024-03-25T12:03:49;10.40;99.90
10472;DHT22;5283;48.876;8.962;2024-03-25T12:06:14;10.50;99.90
10472;DHT22;5283;48.876;8.962;2024-03-25T12:08:40;10.60;99.90
10472;DHT22;5283;48.876;8.962;2024-03-25T12:11:26;10.70;99.90
10472;DHT22;5283;48.876;8.962;2024-03-25T12:13:52;10.80;99.90
10472;DHT22;5283;48.876;8.962;2024-03-25T12:16:18;11.00;99.90
10472;DHT22;5283;48.876;8.962;2024-03-25T12:18:44;11.20;99.90
10472;DHT22;5283;48.876;8.962;2024-03-25T12:21:11;11.30;99.90
10472;DHT22;5283;48.876;8.962;2024-03-25T12:23:37;11.20;99.90
10472;DHT22;5283;48.876;8.962;2024-03-25T12:26:04;11.30;99.90
10472;DHT22;5283;48.876;8.962;2024-03-25T12:28:34;11.30;99.90
10472;DHT22;5283;48.876;8.962;2024-03-25T12:31:07;11.30;99.90
10472;DHT22;5283;48.876;8.962;2024-03-25T12:33:41;11.20;99.90
10472;DHT22;5283;48.876;8.962;2024-03-25T12:36:07;11.20;99.90
10472;DHT22;5283;48.876;8.962;2024-03-25T12:38:32;10.90;99.90
10472;DHT22;5283;48.876;8.962;2024-03-25T12:41:09;10.70;99.90
10472;DHT22;5283;48.876;8.962;2024-03-25T12:43:36;10.80;99.90
10472;DHT22;5283;48.876;8.962;2024-03-25T12:46:02;10.90;99.90
10472;DHT22;5283;48.876;8.962;2024-03-25T12:48:29;11.00;99.90
10472;DHT22;5283;48.876;8.962;2024-03-25T12:50:55;11.00;99.90
10472;DHT22;5283;48.876;8.962;2024-03-25T12:53:21;11.00;99.90
10472;DHT22;5283;48.876;8.962;2024-03-25T12:55:47;10.90;99.90
10472;DHT22;5283;48.876;8.962;2024-03-25T12:58:13;11.00;99.90
10472;DHT22;5283;48.876;8.962;2024-03-25T13:00:39;11.00;99.90
10472;DHT22;5283;48.876;8.962;2024-03-25T13:03:06;10.80;99.90
10472;DHT22;5283;48.876;8.962;2024-03-25T13:05:34;10.60;99.90
10472;DHT22;5283;48.876;8.962;2024-03-25T13:08:00;10.60;99.90
10472;DHT22;5283;48.876;8.962;2024-03-25T13:10:27;10.80;99.90
10472;DHT22;5283;48.876;8.962;2024-03-25T13:12:54;10.90;99.90
10472;DHT22;5283;48.876;8.962;2024-03-25T13:15:20;10.90;99.60
10472;DHT22;5283;48.876;8.962;2024-03-25T13:17:48;11.00;99.90
10472;DHT22;5283;48.876;8.962;2024-03-25T13:20:13;11.00;99.80
10472;DHT22;5283;48.876;8.962;2024-03-25T13:22:40;11.10;99.90
10472;DHT22;5283;48.876;8.962;2024-03-25T13:25:07;11.10;99.90
10472;DHT22;5283;48.876;8.962;2024-03-25T13:27:33;11.30;99.90
10472;DHT22;5283;48.876;8.962;2024-03-25T13:29:58;11.20;99.90
10472;DHT22;5283;48.876;8.962;2024-03-25T13:32:24;11.10;99.90
10472;DHT22;5283;48.876;8.962;2024-03-25T13:34:50;11.00;99.80
10472;DHT22;5283;48.876;8.962;2024-03-25T13:37:16;11.00;99.80
10472;DHT22;5283;48.876;8.962;2024-03-25T13:39:42;11.00;99.90
10472;DHT22;5283;48.876;8.962;2024-03-25T13:42:08;11.10;99.90
10472;DHT22;5283;48.876;8.962;2024-03-25T13:44:34;11.20;99.90
10472;DHT22;5283;48.876;8.962;2024-03-25T13:46:59;11.30;99.90
10472;DHT22;5283;48.876;8.962;2024-03-25T13:49:25;11.30;99.60
10472;DHT22;5283;48.876;8.962;2024-03-25T13:51:56;11.30;99.60
10472;DHT22;5283;48.876;8.962;2024-03-25T13:54:22;11.40;99.90
10472;DHT22;5283;48.876;8.962;2024-03-25T13:56:48;11.50;99.50
10472;DHT22;5283;48.876;8.962;2024-03-25T13:59:14;11.50;99.30
10472;DHT22;5283;48.876;8.962;2024-03-25T14:01:41;11.60;99.90
10472;DHT22;5283;48.876;8.962;2024-03-25T14:04:06;11.60;99.30
10472;DHT22;5283;48.876;8.962;2024-03-25T14:06:32;11.50;98.90
10472;DHT22;5283;48.876;8.962;2024-03-25T14:08:59;11.50;98.20
10472;DHT22;5283;48.876;8.962;2024-03-25T14:11:25;11.40;95.80
10472;DHT22;5283;48.876;8.962;2024-03-25T14:13:51;11.70;96.20
10472;DHT22;5283;48.876;8.962;2024-03-25T14:16:16;12.20;95.50
10472;DHT22;5283;48.876;8.962;2024-03-25T14:18:42;12.70;96.90
10472;DHT22;5283;48.876;8.962;2024-03-25T14:21:08;13.00;97.00
10472;DHT22;5283;48.876;8.962;2024-03-25T14:23:34;13.60;97.50
10472;DHT22;5283;48.876;8.962;2024-03-25T14:26:00;13.90;95.00
10472;DHT22;5283;48.876;8.962;2024-03-25T14:28:25;13.30;94.80
10472;DHT22;5283;48.876;8.962;2024-03-25T14:30:51;13.00;96.10
10472;DHT22;5283;48.876;8.962;2024-03-25T14:33:17;13.00;95.70
10472;DHT22;5283;48.876;8.962;2024-03-25T14:35:43;13.00;95.80
10472;DHT22;5283;48.876;8.962;2024-03-25T14:38:09;13.30;96.20
10472;DHT22;5283;48.876;8.962;2024-03-25T14:40:39;13.40;95.40
10472;DHT22;5283;48.876;8.962;2024-03-25T14:43:04;13.10;94.20
10472;DHT22;5283;48.876;8.962;2024-03-25T14:45:30;12.80;94.50
10472;DHT22;5283;48.876;8.962;2024-03-25T14:47:56;12.60;95.20
10472;DHT22;5283;48.876;8.962;2024-03-25T14:50:22;12.80;95.40
10472;DHT22;5283;48.876;8.962;2024-03-25T14:52:47;12.90;94.10
10472;DHT22;5283;48.876;8.962;2024-03-25T14:55:13;12.80;94.70
10472;DHT22;5283;48.876;8.962;2024-03-25T14:57:39;13.10;96.40
10472;DHT22;5283;48.876;8.962;2024-03-25T15:00:05;13.40;93.80
10472;DHT22;5283;48.876;8.962;2024-03-25T15:02:31;13.40;93.10
10472;DHT22;5283;48.876;8.962;2024-03-25T15:04:57;13.20;93.30
10472;DHT22;5283;48.876;8.962;2024-03-25T15:07:23;13.10;93.60
10472;DHT22;5283;48.876;8.962;2024-03-25T15:09:49;12.90;93.60
10472;DHT22;5283;48.876;8.962;2024-03-25T15:12:14;13.10;94.10
10472;DHT22;5283;48.876;8.962;2024-03-25T15:14:40;13.00;94.10
10472;DHT22;5283;48.876;8.962;2024-03-25T15:17:06;12.80;93.40
10472;DHT22;5283;48.876;8.962;2024-03-25T15:19:33;12.70;93.60
10472;DHT22;5283;48.876;8.962;2024-03-25T15:21:59;12.80;97.40
10472;DHT22;5283;48.876;8.962;2024-03-25T15:24:24;13.00;94.20
10472;DHT22;5283;48.876;8.962;2024-03-25T15:26:50;13.00;93.80
10472;DHT22;5283;48.876;8.962;2024-03-25T15:29:16;12.90;93.70
10472;DHT22;5283;48.876;8.962;2024-03-25T15:31:41;13.00;93.60
10472;DHT22;5283;48.876;8.962;2024-03-25T15:34:07;12.90;92.80
10472;DHT22;5283;48.876;8.962;2024-03-25T15:36:34;12.80;92.70
10472;DHT22;5283;48.876;8.962;2024-03-25T15:39:00;12.90;94.10
10472;DHT22;5283;48.876;8.962;2024-03-25T15:41:26;13.00;93.60
10472;DHT22;5283;48.876;8.962;2024-03-25T15:43:52;12.90;92.90
10472;DHT22;5283;48.876;8.962;2024-03-25T15:46:18;12.80;92.10
10472;DHT22;5283;48.876;8.962;2024-03-25T15:48:44;12.70;92.70
10472;DHT22;5283;48.876;8.962;2024-03-25T15:51:11;12.50;92.50
10472;DHT22;5283;48.876;8.962;2024-03-25T15:53:37;12.30;93.90
10472;DHT22;5283;48.876;8.962;2024-03-25T15:56:03;12.20;93.80